Time;durP1;ratioP1;P1;durP2;ratioP2;P2;SDS_P1;SDS_P2;PMS_P1;PMS_P2;Temp;Humidity;BMP_temperature;BMP_pressure;BME280_temperature;BME280_humidity;BME280_pressure;Samples;Min_cycle;Max_cycle;Signal;HPM_P1;HPM_P2
2022/08/14 00:00:19;;;;;;;0.00;0.00;;;;;;;;;;1721690;28;20459;-68
2022/08/14 00:01:11;;;;;;;0.00;0.00;;;;;;;;;;1719852;28;20993;-68
2022/08/14 00:02:03;;;;;;;0.00;0.00;;;;;;;;;;1721471;28;20500;-68
2022/08/14 00:02:56;;;;;;;0.00;0.00;;;;;;;;;;1719925;28;20829;-68
2022/08/14 00:03:47;;;;;;;0.00;0.00;;;;;;;;;;1718162;28;20487;-68
2022/08/14 00:04:39;;;;;;;0.00;0.00;;;;;;;;;;1717726;28;20475;-68
2022/08/14 00:05:30;;;;;;;0.00;0.00;;;;;;;;;;1717093;28;20484;-68
2022/08/14 00:06:22;;;;;;;0.00;0.00;;;;;;;;;;1718373;28;20479;-68
2022/08/14 00:07:14;;;;;;;0.00;0.00;;;;;;;;;;1718643;28;20806;-69
2022/08/14 00:08:06;;;;;;;0.00;0.00;;;;;;;;;;1724208;28;20474;-69
2022/08/14 00:08:57;;;;;;;0.00;0.00;;;;;;;;;;1723752;28;20478;-69
2022/08/14 00:09:49;;;;;;;0.00;0.00;;;;;;;;;;1718462;28;20467;-70
2022/08/14 00:10:41;;;;;;;0.00;0.00;;;;;;;;;;1716989;28;20825;-70
2022/08/14 00:11:33;;;;;;;0.00;0.00;;;;;;;;;;1718681;28;21216;-70
2022/08/14 00:12:25;;;;;;;0.00;0.00;;;;;;;;;;1718232;28;20511;-70
2022/08/14 00:13:18;;;;;;;0.00;0.00;;;;;;;;;;1718572;28;20519;-70
2022/08/14 00:14:09;;;;;;;0.00;0.00;;;;;;;;;;1720213;28;20464;-70
2022/08/14 00:15:08;;;;;;;0.00;0.00;;;;;;;;;;1724440;28;20865;-70
2022/08/14 00:15:59;;;;;;;0.00;0.00;;;;;;;;;;1719577;28;20688;-70
2022/08/14 00:16:51;;;;;;;0.00;0.00;;;;;;;;;;1718602;28;20468;-70
2022/08/14 00:17:43;;;;;;;0.00;0.00;;;;;;;;;;1718494;28;20476;-70
2022/08/14 00:18:35;;;;;;;0.00;0.00;;;;;;;;;;1718640;28;20518;-69
2022/08/14 00:19:27;;;;;;;0.00;0.00;;;;;;;;;;1717968;28;20478;-69
2022/08/14 00:20:20;;;;;;;0.00;0.00;;;;;;;;;;1717819;28;20463;-69
2022/08/14 00:21:12;;;;;;;0.00;0.00;;;;;;;;;;1718421;28;20529;-69
2022/08/14 00:22:04;;;;;;;0.00;0.00;;;;;;;;;;1718680;28;20464;-69
2022/08/14 00:22:55;;;;;;;0.00;0.00;;;;;;;;;;1718388;28;20464;-69
2022/08/14 00:23:48;;;;;;;0.00;0.00;;;;;;;;;;1718859;28;21216;-69
2022/08/14 00:24:39;;;;;;;0.00;0.00;;;;;;;;;;1719660;28;20476;-69
2022/08/14 00:25:31;;;;;;;0.00;0.00;;;;;;;;;;1723984;28;20562;-69
2022/08/14 00:26:23;;;;;;;0.00;0.00;;;;;;;;;;1718663;28;20475;-69
2022/08/14 00:27:17;;;;;;;0.00;0.00;;;;;;;;;;1718496;28;20832;-69
2022/08/14 00:28:09;;;;;;;0.00;0.00;;;;;;;;;;1718654;28;20471;-69
2022/08/14 00:29:01;;;;;;;0.00;0.00;;;;;;;;;;1719638;28;20564;-69
2022/08/14 00:29:52;;;;;;;0.00;0.00;;;;;;;;;;1725163;28;21002;-69
2022/08/14 00:30:46;;;;;;;0.00;0.00;;;;;;;;;;1722846;28;20490;-69
2022/08/14 00:31:38;;;;;;;0.00;0.00;;;;;;;;;;1725084;28;20471;-69
2022/08/14 00:32:29;;;;;;;0.00;0.00;;;;;;;;;;1722436;28;20797;-69
2022/08/14 00:33:21;;;;;;;0.00;0.00;;;;;;;;;;1721082;28;20992;-69
2022/08/14 00:34:12;;;;;;;0.00;0.00;;;;;;;;;;1720026;28;20459;-69
2022/08/14 00:35:05;;;;;;;0.00;0.00;;;;;;;;;;1718853;28;20912;-69
2022/08/14 00:35:57;;;;;;;0.00;0.00;;;;;;;;;;1716603;28;20483;-69
2022/08/14 00:36:49;;;;;;;0.00;0.00;;;;;;;;;;1718571;28;20460;-69
2022/08/14 00:37:41;;;;;;;0.00;0.00;;;;;;;;;;1718227;28;20985;-69
2022/08/14 00:38:34;;;;;;;0.00;0.00;;;;;;;;;;1718663;28;20506;-69
2022/08/14 00:39:25;;;;;;;0.00;0.00;;;;;;;;;;1718436;28;20468;-68
2022/08/14 00:40:19;;;;;;;0.00;0.00;;;;;;;;;;1723452;28;20471;-68
2022/08/14 00:41:10;;;;;;;0.00;0.00;;;;;;;;;;1719527;28;20467;-68
2022/08/14 00:42:02;;;;;;;0.00;0.00;;;;;;;;;;1718213;28;20583;-68
2022/08/14 00:42:53;;;;;;;0.00;0.00;;;;;;;;;;1718142;28;20820;-68
2022/08/14 00:43:48;;;;;;;0.00;0.00;;;;;;;;;;1718610;28;20532;-68
2022/08/14 00:44:40;;;;;;;0.00;0.00;;;;;;;;;;1718195;28;20499;-68
2022/08/14 00:45:32;;;;;;;0.00;0.00;;;;;;;;;;1717623;28;20478;-69
2022/08/14 00:46:25;;;;;;;0.00;0.00;;;;;;;;;;1717987;28;20479;-68
2022/08/14 00:47:18;;;;;;;0.00;0.00;;;;;;;;;;1718486;28;20506;-68
2022/08/14 00:48:10;;;;;;;0.00;0.00;;;;;;;;;;1717855;28;20475;-68
2022/08/14 00:49:02;;;;;;;0.00;0.00;;;;;;;;;;1718608;28;20511;-68
2022/08/14 00:49:55;;;;;;;0.00;0.00;;;;;;;;;;1720849;28;20490;-68
2022/08/14 00:50:47;;;;;;;0.00;0.00;;;;;;;;;;1723009;28;20995;-68
2022/08/14 00:51:38;;;;;;;0.00;0.00;;;;;;;;;;1724904;28;20582;-68
2022/08/14 00:52:31;;;;;;;0.00;0.00;;;;;;;;;;1721343;28;20501;-69
2022/08/14 00:53:24;;;;;;;0.00;0.00;;;;;;;;;;1718370;28;20464;-68
2022/08/14 00:54:17;;;;;;;0.00;0.00;;;;;;;;;;1717898;28;20916;-68
2022/08/14 00:55:09;;;;;;;0.00;0.00;;;;;;;;;;1718577;28;20559;-68
2022/08/14 00:56:01;;;;;;;0.00;0.00;;;;;;;;;;1720180;28;20494;-68
2022/08/14 00:56:52;;;;;;;0.00;0.00;;;;;;;;;;1724619;28;20509;-68
2022/08/14 00:57:45;;;;;;;0.00;0.00;;;;;;;;;;1720287;28;20913;-68
2022/08/14 00:58:36;;;;;;;0.00;0.00;;;;;;;;;;1718577;28;20472;-68
2022/08/14 00:59:29;;;;;;;0.00;0.00;;;;;;;;;;1719525;28;20758;-68
2022/08/14 01:00:22;;;;;;;0.00;0.00;;;;;;;;;;1721986;28;20861;-68
2022/08/14 01:01:16;;;;;;;0.00;0.00;;;;;;;;;;1723360;28;20467;-68
2022/08/14 01:02:09;;;;;;;0.00;0.00;;;;;;;;;;1724626;28;20459;-68
2022/08/14 01:03:02;;;;;;;0.00;0.00;;;;;;;;;;1718945;28;21083;-68
2022/08/14 01:03:53;;;;;;;0.00;0.00;;;;;;;;;;1719231;28;20570;-68
2022/08/14 01:04:46;;;;;;;0.00;0.00;;;;;;;;;;1717858;28;20474;-68
2022/08/14 01:05:37;;;;;;;0.00;0.00;;;;;;;;;;1717585;28;20507;-68
2022/08/14 01:06:31;;;;;;;0.00;0.00;;;;;;;;;;1724865;28;20470;-68
2022/08/14 01:07:23;;;;;;;0.00;0.00;;;;;;;;;;1724239;28;20463;-68
2022/08/14 01:08:14;;;;;;;0.00;0.00;;;;;;;;;;1724380;28;20578;-68
2022/08/14 01:09:07;;;;;;;0.00;0.00;;;;;;;;;;1722218;28;20494;-68
2022/08/14 01:10:00;;;;;;;0.00;0.00;;;;;;;;;;1718052;28;20468;-68
2022/08/14 01:10:53;;;;;;;0.00;0.00;;;;;;;;;;1719398;28;20498;-68
2022/08/14 01:11:44;;;;;;;0.00;0.00;;;;;;;;;;1725955;28;20520;-68
2022/08/14 01:12:37;;;;;;;0.00;0.00;;;;;;;;;;1725742;28;20207;-68
2022/08/14 01:13:29;;;;;;;0.00;0.00;;;;;;;;;;1725884;28;20239;-68
2022/08/14 01:14:21;;;;;;;0.00;0.00;;;;;;;;;;1721796;28;20207;-68
2022/08/14 01:15:12;;;;;;;0.00;0.00;;;;;;;;;;1718108;28;20475;-68
2022/08/14 01:16:06;;;;;;;0.00;0.00;;;;;;;;;;1718483;28;20392;-68
2022/08/14 01:16:58;;;;;;;0.00;0.00;;;;;;;;;;1719215;28;20471;-68
2022/08/14 01:21:24;;;;;;;0.00;0.00;;;;;;;;;;1717962;28;20235;-68
2022/08/14 01:22:17;;;;;;;0.00;0.00;;;;;;;;;;1719128;28;20313;-68
2022/08/14 01:23:10;;;;;;;0.00;0.00;;;;;;;;;;1719300;28;20463;-68
2022/08/14 01:24:01;;;;;;;0.00;0.00;;;;;;;;;;1720459;28;20205;-68
2022/08/14 01:24:54;;;;;;;0.00;0.00;;;;;;;;;;1725713;28;20477;-68
2022/08/14 01:25:46;;;;;;;0.00;0.00;;;;;;;;;;1724327;28;20521;-68
2022/08/14 01:26:39;;;;;;;0.00;0.00;;;;;;;;;;1724454;28;20248;-69
2022/08/14 01:27:30;;;;;;;0.00;0.00;;;;;;;;;;1723681;28;20212;-68
2022/08/14 01:28:23;;;;;;;0.00;0.00;;;;;;;;;;1721581;28;20209;-68
2022/08/14 01:29:15;;;;;;;0.00;0.00;;;;;;;;;;1724188;28;20257;-68
2022/08/14 01:30:07;;;;;;;0.00;0.00;;;;;;;;;;1724732;28;20200;-68
2022/08/14 01:30:58;;;;;;;0.00;0.00;;;;;;;;;;1723905;28;21197;-68
2022/08/14 01:31:51;;;;;;;0.00;0.00;;;;;;;;;;1725587;28;20247;-68
2022/08/14 01:32:42;;;;;;;0.00;0.00;;;;;;;;;;1725043;28;20784;-68
2022/08/14 01:33:37;;;;;;;0.00;0.00;;;;;;;;;;1719568;28;20568;-68
2022/08/14 01:34:30;;;;;;;0.00;0.00;;;;;;;;;;1725209;28;20646;-68
2022/08/14 01:35:21;;;;;;;0.00;0.00;;;;;;;;;;1717732;28;20220;-68
2022/08/14 01:36:14;;;;;;;0.00;0.00;;;;;;;;;;1718715;28;20616;-68
2022/08/14 01:37:06;;;;;;;0.00;0.00;;;;;;;;;;1719188;28;20200;-68
2022/08/14 01:37:58;;;;;;;0.00;0.00;;;;;;;;;;1718942;28;20638;-68
2022/08/14 01:38:50;;;;;;;0.00;0.00;;;;;;;;;;1719242;28;20212;-68
2022/08/14 01:39:42;;;;;;;0.00;0.00;;;;;;;;;;1719133;28;20642;-68
2022/08/14 01:40:34;;;;;;;0.00;0.00;;;;;;;;;;1718358;28;20236;-68
2022/08/14 01:41:26;;;;;;;0.00;0.00;;;;;;;;;;1725699;28;20528;-68
2022/08/14 01:42:18;;;;;;;0.00;0.00;;;;;;;;;;1725160;28;20596;-68
2022/08/14 01:43:16;;;;;;;0.00;0.00;;;;;;;;;;1719766;28;20201;-68
2022/08/14 01:44:11;;;;;;;0.00;0.00;;;;;;;;;;1719518;28;20586;-68
2022/08/14 01:45:11;;;;;;;0.00;0.00;;;;;;;;;;1720851;28;20205;-68
2022/08/14 01:46:10;;;;;;;0.00;0.00;;;;;;;;;;1724368;28;20610;-68
2022/08/14 01:47:11;;;;;;;0.00;0.00;;;;;;;;;;1725789;28;20634;-68
2022/08/14 01:48:02;;;;;;;0.00;0.00;;;;;;;;;;1725628;28;20250;-68
2022/08/14 01:48:55;;;;;;;0.00;0.00;;;;;;;;;;1725500;28;20704;-68
2022/08/14 01:49:48;;;;;;;0.00;0.00;;;;;;;;;;1726120;28;21020;-68
2022/08/14 01:50:40;;;;;;;0.00;0.00;;;;;;;;;;1724293;28;20251;-68
2022/08/14 01:51:32;;;;;;;0.00;0.00;;;;;;;;;;1725937;28;20200;-68
2022/08/14 01:52:26;;;;;;;0.00;0.00;;;;;;;;;;1723800;28;20204;-68
2022/08/14 01:53:17;;;;;;;0.00;0.00;;;;;;;;;;1719032;28;20209;-68
2022/08/14 01:54:10;;;;;;;0.00;0.00;;;;;;;;;;1719035;28;20207;-68
2022/08/14 01:55:07;;;;;;;0.00;0.00;;;;;;;;;;1719243;28;20217;-68
2022/08/14 01:56:00;;;;;;;0.00;0.00;;;;;;;;;;1717715;28;20232;-68
2022/08/14 01:56:54;;;;;;;0.00;0.00;;;;;;;;;;1718953;28;20248;-68
2022/08/14 01:57:46;;;;;;;0.00;0.00;;;;;;;;;;1723103;28;20212;-68
2022/08/14 01:58:38;;;;;;;0.00;0.00;;;;;;;;;;1725996;28;20213;-68
2022/08/14 01:59:31;;;;;;;0.00;0.00;;;;;;;;;;1720242;28;20622;-68
2022/08/14 02:00:25;;;;;;;0.00;0.00;;;;;;;;;;1718074;28;20248;-68
2022/08/14 02:01:17;;;;;;;0.00;0.00;;;;;;;;;;1723056;28;20224;-68
2022/08/14 02:02:11;;;;;;;0.00;0.00;;;;;;;;;;1725655;28;20201;-68
2022/08/14 02:03:03;;;;;;;0.00;0.00;;;;;;;;;;1719790;28;20640;-68
2022/08/14 02:03:54;;;;;;;0.00;0.00;;;;;;;;;;1720055;28;20332;-68
2022/08/14 02:04:46;;;;;;;0.00;0.00;;;;;;;;;;1718631;28;20209;-68
2022/08/14 02:05:38;;;;;;;0.00;0.00;;;;;;;;;;1717814;28;20668;-68
2022/08/14 02:06:30;;;;;;;0.00;0.00;;;;;;;;;;1719079;28;20205;-68
2022/08/14 02:07:21;;;;;;;0.00;0.00;;;;;;;;;;1720182;28;20534;-68
2022/08/14 02:08:15;;;;;;;0.00;0.00;;;;;;;;;;1722503;28;20196;-68
2022/08/14 02:09:08;;;;;;;0.00;0.00;;;;;;;;;;1720316;28;20236;-68
2022/08/14 02:09:59;;;;;;;0.00;0.00;;;;;;;;;;1718941;28;20564;-68
2022/08/14 02:11:15;;;;;;;0.00;0.00;;;;;;;;;;1717933;28;20332;-68
2022/08/14 02:12:06;;;;;;;0.00;0.00;;;;;;;;;;1718797;28;20995;-68
2022/08/14 02:12:57;;;;;;;0.00;0.00;;;;;;;;;;1725230;28;20204;-68
2022/08/14 02:13:51;;;;;;;0.00;0.00;;;;;;;;;;1725548;28;20204;-68
2022/08/14 02:14:43;;;;;;;0.00;0.00;;;;;;;;;;1725809;28;20222;-68
2022/08/14 02:15:34;;;;;;;0.00;0.00;;;;;;;;;;1723210;28;20240;-68
2022/08/14 02:16:28;;;;;;;0.00;0.00;;;;;;;;;;1718574;28;20201;-68
2022/08/14 02:17:22;;;;;;;0.00;0.00;;;;;;;;;;1718887;28;20201;-68
2022/08/14 02:18:14;;;;;;;0.00;0.00;;;;;;;;;;1722027;28;20200;-68
2022/08/14 02:19:06;;;;;;;0.00;0.00;;;;;;;;;;1723225;28;20626;-68
2022/08/14 02:19:59;;;;;;;0.00;0.00;;;;;;;;;;1718922;28;20275;-68
2022/08/14 02:20:50;;;;;;;0.00;0.00;;;;;;;;;;1717809;28;20513;-68
2022/08/14 02:21:43;;;;;;;0.00;0.00;;;;;;;;;;1721182;28;20205;-68
2022/08/14 02:22:35;;;;;;;0.00;0.00;;;;;;;;;;1723294;28;20215;-68
2022/08/14 02:23:29;;;;;;;0.00;0.00;;;;;;;;;;1719881;28;20263;-68
2022/08/14 02:24:22;;;;;;;0.00;0.00;;;;;;;;;;1721392;28;20200;-67
2022/08/14 02:25:14;;;;;;;0.00;0.00;;;;;;;;;;1717613;28;20201;-67
2022/08/14 02:26:14;;;;;;;0.00;0.00;;;;;;;;;;1720188;28;20522;-67
2022/08/14 02:27:06;;;;;;;0.00;0.00;;;;;;;;;;1719112;28;20596;-67
2022/08/14 02:27:57;;;;;;;0.00;0.00;;;;;;;;;;1721324;28;20213;-67
2022/08/14 02:28:50;;;;;;;0.00;0.00;;;;;;;;;;1721609;28;20330;-67
2022/08/14 02:29:42;;;;;;;0.00;0.00;;;;;;;;;;1719064;28;20213;-67
2022/08/14 02:30:35;;;;;;;0.00;0.00;;;;;;;;;;1723537;28;20236;-67
2022/08/14 02:31:29;;;;;;;0.00;0.00;;;;;;;;;;1724706;28;20227;-67
2022/08/14 02:32:21;;;;;;;0.00;0.00;;;;;;;;;;1724754;28;20197;-67
2022/08/14 02:33:12;;;;;;;0.00;0.00;;;;;;;;;;1722505;28;20207;-67
2022/08/14 02:34:05;;;;;;;0.00;0.00;;;;;;;;;;1721693;28;20238;-67
2022/08/14 02:34:56;;;;;;;0.00;0.00;;;;;;;;;;1725478;28;20422;-69
2022/08/14 02:35:48;;;;;;;0.00;0.00;;;;;;;;;;1721727;28;20681;-69
2022/08/14 02:36:40;;;;;;;0.00;0.00;;;;;;;;;;1718732;28;20205;-69
2022/08/14 02:37:32;;;;;;;0.00;0.00;;;;;;;;;;1720234;28;20246;-69
2022/08/14 02:38:25;;;;;;;0.00;0.00;;;;;;;;;;1718758;28;20268;-69
2022/08/14 02:39:18;;;;;;;0.00;0.00;;;;;;;;;;1720728;28;20650;-69
2022/08/14 02:40:11;;;;;;;0.00;0.00;;;;;;;;;;1719464;28;20201;-69
2022/08/14 02:41:03;;;;;;;0.00;0.00;;;;;;;;;;1718365;28;20308;-69
2022/08/14 02:41:55;;;;;;;0.00;0.00;;;;;;;;;;1719334;28;20197;-68
2022/08/14 02:42:46;;;;;;;0.00;0.00;;;;;;;;;;1719071;28;20298;-68
2022/08/14 02:43:38;;;;;;;0.00;0.00;;;;;;;;;;1719055;28;20212;-68
2022/08/14 02:44:30;;;;;;;0.00;0.00;;;;;;;;;;1723744;28;20204;-68
2022/08/14 02:45:22;;;;;;;0.00;0.00;;;;;;;;;;1724209;28;20270;-68
2022/08/14 02:46:15;;;;;;;0.00;0.00;;;;;;;;;;1724674;28;20196;-68
2022/08/14 02:47:07;;;;;;;0.00;0.00;;;;;;;;;;1725389;28;20663;-68
2022/08/14 02:47:59;;;;;;;0.00;0.00;;;;;;;;;;1724917;28;20200;-69
2022/08/14 02:48:51;;;;;;;0.00;0.00;;;;;;;;;;1725231;28;20603;-69
2022/08/14 02:49:44;;;;;;;0.00;0.00;;;;;;;;;;1725144;28;20212;-69
2022/08/14 02:50:37;;;;;;;0.00;0.00;;;;;;;;;;1723978;28;20330;-69
2022/08/14 02:51:30;;;;;;;0.00;0.00;;;;;;;;;;1725025;28;20231;-69
2022/08/14 02:52:21;;;;;;;0.00;0.00;;;;;;;;;;1724751;28;20213;-69
2022/08/14 02:53:13;;;;;;;0.00;0.00;;;;;;;;;;1725164;28;20222;-69
2022/08/14 02:54:07;;;;;;;0.00;0.00;;;;;;;;;;1723737;28;20243;-69
2022/08/14 02:54:59;;;;;;;0.00;0.00;;;;;;;;;;1718746;28;20213;-69
2022/08/14 02:55:52;;;;;;;0.00;0.00;;;;;;;;;;1717568;28;20582;-69
2022/08/14 02:56:43;;;;;;;0.00;0.00;;;;;;;;;;1718916;28;20212;-69
2022/08/14 02:57:36;;;;;;;0.00;0.00;;;;;;;;;;1718272;28;20212;-69
2022/08/14 02:58:27;;;;;;;0.00;0.00;;;;;;;;;;1718690;28;20219;-69
2022/08/14 02:59:19;;;;;;;0.00;0.00;;;;;;;;;;1721996;28;20204;-69
2022/08/14 03:00:12;;;;;;;0.00;0.00;;;;;;;;;;1725049;28;20208;-69
2022/08/14 03:01:04;;;;;;;0.00;0.00;;;;;;;;;;1724128;28;20227;-69
2022/08/14 03:01:56;;;;;;;0.00;0.00;;;;;;;;;;1725032;28;20208;-69
2022/08/14 03:02:49;;;;;;;0.00;0.00;;;;;;;;;;1724694;28;20208;-69
2022/08/14 03:03:41;;;;;;;0.00;0.00;;;;;;;;;;1718512;28;20232;-69
2022/08/14 03:04:33;;;;;;;0.00;0.00;;;;;;;;;;1724965;28;20291;-69
2022/08/14 03:05:29;;;;;;;0.00;0.00;;;;;;;;;;1723956;28;20702;-69
2022/08/14 03:06:24;;;;;;;0.00;0.00;;;;;;;;;;1718616;28;20193;-69
2022/08/14 03:07:15;;;;;;;0.00;0.00;;;;;;;;;;1719062;28;20649;-69
2022/08/14 03:08:08;;;;;;;0.00;0.00;;;;;;;;;;1724793;28;20193;-69
2022/08/14 03:09:00;;;;;;;0.00;0.00;;;;;;;;;;1724358;28;20215;-69
2022/08/14 03:09:52;;;;;;;0.00;0.00;;;;;;;;;;1718434;28;20212;-69
2022/08/14 03:10:44;;;;;;;0.00;0.00;;;;;;;;;;1717465;28;20236;-69
2022/08/14 03:11:37;;;;;;;0.00;0.00;;;;;;;;;;1718813;28;20681;-69
2022/08/14 03:12:28;;;;;;;0.00;0.00;;;;;;;;;;1718173;28;20224;-69
2022/08/14 03:13:20;;;;;;;0.00;0.00;;;;;;;;;;1718450;28;20212;-69
2022/08/14 03:14:12;;;;;;;0.00;0.00;;;;;;;;;;1718468;28;20204;-69
2022/08/14 03:15:09;;;;;;;0.00;0.00;;;;;;;;;;1718608;28;20653;-69
2022/08/14 03:16:00;;;;;;;0.00;0.00;;;;;;;;;;1717954;28;20297;-69
2022/08/14 03:16:52;;;;;;;0.00;0.00;;;;;;;;;;1718754;28;20200;-69
2022/08/14 03:17:43;;;;;;;0.00;0.00;;;;;;;;;;1719970;28;20212;-68
2022/08/14 03:18:36;;;;;;;0.00;0.00;;;;;;;;;;1718354;28;20205;-68
2022/08/14 03:19:27;;;;;;;0.00;0.00;;;;;;;;;;1720235;28;20701;-68
2022/08/14 03:20:20;;;;;;;0.00;0.00;;;;;;;;;;1717526;28;20229;-68
2022/08/14 03:21:14;;;;;;;0.00;0.00;;;;;;;;;;1719753;28;20197;-68
2022/08/14 03:22:05;;;;;;;0.00;0.00;;;;;;;;;;1723950;28;20204;-68
2022/08/14 03:22:59;;;;;;;0.00;0.00;;;;;;;;;;1721629;28;20259;-68
2022/08/14 03:23:55;;;;;;;0.00;0.00;;;;;;;;;;1718578;28;20282;-68
2022/08/14 03:24:48;;;;;;;0.00;0.00;;;;;;;;;;1718068;28;20562;-68
2022/08/14 03:25:39;;;;;;;0.00;0.00;;;;;;;;;;1717963;28;20248;-68
2022/08/14 03:26:32;;;;;;;0.00;0.00;;;;;;;;;;1722242;28;20557;-68
2022/08/14 03:27:28;;;;;;;0.00;0.00;;;;;;;;;;1719747;28;20670;-68
2022/08/14 03:28:28;;;;;;;0.00;0.00;;;;;;;;;;1721266;28;20642;-68
2022/08/14 03:29:19;;;;;;;0.00;0.00;;;;;;;;;;1723098;28;20472;-68
2022/08/14 03:30:12;;;;;;;0.00;0.00;;;;;;;;;;1723436;28;20200;-68
2022/08/14 03:31:04;;;;;;;0.00;0.00;;;;;;;;;;1723356;28;20710;-68
2022/08/14 03:31:58;;;;;;;0.00;0.00;;;;;;;;;;1721202;28;20208;-68
2022/08/14 03:32:49;;;;;;;0.00;0.00;;;;;;;;;;1724341;28;20382;-68
2022/08/14 03:33:42;;;;;;;0.00;0.00;;;;;;;;;;1718792;28;20500;-68
2022/08/14 03:34:33;;;;;;;0.00;0.00;;;;;;;;;;1723962;28;20208;-68
2022/08/14 03:35:25;;;;;;;0.00;0.00;;;;;;;;;;1716932;28;20209;-68
2022/08/14 03:36:18;;;;;;;0.00;0.00;;;;;;;;;;1723316;28;20231;-68
2022/08/14 03:37:11;;;;;;;0.00;0.00;;;;;;;;;;1718470;28;20212;-68
2022/08/14 03:38:07;;;;;;;0.00;0.00;;;;;;;;;;1723116;28;20550;-68
2022/08/14 03:38:59;;;;;;;0.00;0.00;;;;;;;;;;1719003;28;20205;-68
2022/08/14 03:39:52;;;;;;;0.00;0.00;;;;;;;;;;1722428;28;20201;-68
2022/08/14 03:40:45;;;;;;;0.00;0.00;;;;;;;;;;1718423;28;20291;-68
2022/08/14 03:41:40;;;;;;;0.00;0.00;;;;;;;;;;1721482;28;20201;-68
2022/08/14 03:42:31;;;;;;;0.00;0.00;;;;;;;;;;1720371;28;20216;-68
2022/08/14 03:43:23;;;;;;;0.00;0.00;;;;;;;;;;1720627;28;20213;-68
2022/08/14 03:44:14;;;;;;;0.00;0.00;;;;;;;;;;1721052;28;20265;-68
2022/08/14 03:45:07;;;;;;;0.00;0.00;;;;;;;;;;1720831;28;20618;-68
2022/08/14 03:45:59;;;;;;;0.00;0.00;;;;;;;;;;1717658;28;20717;-68
2022/08/14 03:46:51;;;;;;;0.00;0.00;;;;;;;;;;1718717;28;20215;-68
2022/08/14 03:47:42;;;;;;;0.00;0.00;;;;;;;;;;1719347;28;20219;-68
2022/08/14 03:48:34;;;;;;;0.00;0.00;;;;;;;;;;1718662;28;20718;-68
2022/08/14 03:49:25;;;;;;;0.00;0.00;;;;;;;;;;1719322;28;20237;-68
2022/08/14 03:50:18;;;;;;;0.00;0.00;;;;;;;;;;1717487;28;20636;-68
2022/08/14 03:51:10;;;;;;;0.00;0.00;;;;;;;;;;1719226;28;20499;-69
2022/08/14 03:52:04;;;;;;;0.00;0.00;;;;;;;;;;1718006;28;20649;-69
2022/08/14 03:52:55;;;;;;;0.00;0.00;;;;;;;;;;1719339;28;20205;-69
2022/08/14 03:53:47;;;;;;;0.00;0.00;;;;;;;;;;1718431;28;20252;-69
2022/08/14 03:54:38;;;;;;;0.00;0.00;;;;;;;;;;1719368;28;20209;-69
2022/08/14 03:55:31;;;;;;;0.00;0.00;;;;;;;;;;1717240;28;20898;-69
2022/08/14 03:56:23;;;;;;;0.00;0.00;;;;;;;;;;1719580;28;20208;-68
2022/08/14 03:57:17;;;;;;;0.00;0.00;;;;;;;;;;1718213;28;20292;-68
2022/08/14 03:58:08;;;;;;;0.00;0.00;;;;;;;;;;1718819;28;20543;-68
2022/08/14 03:59:10;;;;;;;0.00;0.00;;;;;;;;;;1718782;28;20233;-68
2022/08/14 04:00:05;;;;;;;0.00;0.00;;;;;;;;;;1718342;28;20288;-68
2022/08/14 04:00:57;;;;;;;0.00;0.00;;;;;;;;;;1719560;28;21622;-68
2022/08/14 04:01:50;;;;;;;0.00;0.00;;;;;;;;;;1724713;28;20208;-68
2022/08/14 04:02:43;;;;;;;0.00;0.00;;;;;;;;;;1724075;28;20208;-68
2022/08/14 04:03:34;;;;;;;0.00;0.00;;;;;;;;;;1719101;28;20263;-68
2022/08/14 04:04:26;;;;;;;0.00;0.00;;;;;;;;;;1719821;28;20216;-69
2022/08/14 04:05:17;;;;;;;0.00;0.00;;;;;;;;;;1717374;28;20200;-69
2022/08/14 04:06:10;;;;;;;0.00;0.00;;;;;;;;;;1718292;28;20636;-69
2022/08/14 04:07:02;;;;;;;0.00;0.00;;;;;;;;;;1718567;28;20303;-68
2022/08/14 04:07:54;;;;;;;0.00;0.00;;;;;;;;;;1719451;28;20219;-68
2022/08/14 04:08:46;;;;;;;0.00;0.00;;;;;;;;;;1718482;28;20205;-68
2022/08/14 04:09:38;;;;;;;0.00;0.00;;;;;;;;;;1719731;28;20208;-68
2022/08/14 04:10:29;;;;;;;0.00;0.00;;;;;;;;;;1717482;28;20753;-68
2022/08/14 04:11:21;;;;;;;0.00;0.00;;;;;;;;;;1724281;28;20246;-68
2022/08/14 04:12:13;;;;;;;0.00;0.00;;;;;;;;;;1724492;28;20208;-68
2022/08/14 04:13:06;;;;;;;0.00;0.00;;;;;;;;;;1718022;28;20716;-68
2022/08/14 04:14:00;;;;;;;0.00;0.00;;;;;;;;;;1718701;28;20204;-68
2022/08/14 04:14:52;;;;;;;0.00;0.00;;;;;;;;;;1718323;28;20247;-68
2022/08/14 04:15:44;;;;;;;0.00;0.00;;;;;;;;;;1717349;28;20233;-68
2022/08/14 04:16:36;;;;;;;0.00;0.00;;;;;;;;;;1718127;28;20470;-68
2022/08/14 04:17:28;;;;;;;0.00;0.00;;;;;;;;;;1718569;28;20213;-68
2022/08/14 04:18:20;;;;;;;0.00;0.00;;;;;;;;;;1718125;28;20312;-68
2022/08/14 04:19:17;;;;;;;0.00;0.00;;;;;;;;;;1720051;28;20208;-68
2022/08/14 04:20:09;;;;;;;0.00;0.00;;;;;;;;;;1724328;28;20312;-68
2022/08/14 04:21:01;;;;;;;0.00;0.00;;;;;;;;;;1720454;28;20252;-68
2022/08/14 04:21:52;;;;;;;0.00;0.00;;;;;;;;;;1721927;28;20289;-68
2022/08/14 04:22:44;;;;;;;0.00;0.00;;;;;;;;;;1721367;28;20240;-68
2022/08/14 04:23:36;;;;;;;0.00;0.00;;;;;;;;;;1718393;28;20213;-68
2022/08/14 04:24:29;;;;;;;0.00;0.00;;;;;;;;;;1719356;28;20209;-68
2022/08/14 04:25:20;;;;;;;0.00;0.00;;;;;;;;;;1717029;28;20566;-68
2022/08/14 04:26:13;;;;;;;0.00;0.00;;;;;;;;;;1723026;28;20275;-68
2022/08/14 04:27:05;;;;;;;0.00;0.00;;;;;;;;;;1724858;28;20239;-68
2022/08/14 04:27:57;;;;;;;0.00;0.00;;;;;;;;;;1720207;28;20304;-68
2022/08/14 04:28:50;;;;;;;0.00;0.00;;;;;;;;;;1720759;28;20661;-68
2022/08/14 04:29:43;;;;;;;0.00;0.00;;;;;;;;;;1718451;28;20213;-68
2022/08/14 04:30:38;;;;;;;0.00;0.00;;;;;;;;;;1723475;28;20282;-68
2022/08/14 04:31:29;;;;;;;0.00;0.00;;;;;;;;;;1724726;28;20216;-68
2022/08/14 04:32:24;;;;;;;0.00;0.00;;;;;;;;;;1723919;28;20203;-68
2022/08/14 04:33:16;;;;;;;0.00;0.00;;;;;;;;;;1720071;28;20201;-68
2022/08/14 04:34:08;;;;;;;0.00;0.00;;;;;;;;;;1720273;28;20223;-68
2022/08/14 04:34:59;;;;;;;0.00;0.00;;;;;;;;;;1717939;28;20197;-68
2022/08/14 04:35:51;;;;;;;0.00;0.00;;;;;;;;;;1718045;28;20233;-68
2022/08/14 04:43:36;;;;;;;0.00;0.00;;;;;;;;;;1718120;28;20289;-68
2022/08/14 04:44:29;;;;;;;0.00;0.00;;;;;;;;;;1718461;28;20205;-68
2022/08/14 04:45:23;;;;;;;0.00;0.00;;;;;;;;;;1716886;28;20562;-68
2022/08/14 04:46:14;;;;;;;0.00;0.00;;;;;;;;;;1718455;28;20646;-68
2022/08/14 04:48:32;;;;;;;0.00;0.00;;;;;;;;;;1710668;28;20592;-68
2022/08/14 04:49:23;;;;;;;0.00;0.00;;;;;;;;;;1709103;28;20202;-68
2022/08/14 04:50:14;;;;;;;0.00;0.00;;;;;;;;;;1703901;28;20652;-70
2022/08/14 04:51:09;;;;;;;0.00;0.00;;;;;;;;;;1706373;28;20505;-69
2022/08/14 04:52:02;;;;;;;0.00;0.00;;;;;;;;;;1704904;29;20221;-68
2022/08/14 04:52:55;;;;;;;0.00;0.00;;;;;;;;;;1706575;28;20540;-68
2022/08/14 04:53:48;;;;;;;0.00;0.00;;;;;;;;;;1705315;29;20320;-68
2022/08/14 04:54:39;;;;;;;0.00;0.00;;;;;;;;;;1718506;28;20223;-68
2022/08/14 04:55:32;;;;;;;0.00;0.00;;;;;;;;;;1718488;28;20229;-68
2022/08/14 04:56:24;;;;;;;0.00;0.00;;;;;;;;;;1719879;28;20665;-68
2022/08/14 04:57:17;;;;;;;0.00;0.00;;;;;;;;;;1719449;28;20617;-68
2022/08/14 04:58:09;;;;;;;0.00;0.00;;;;;;;;;;1726018;28;20626;-68
2022/08/14 04:59:03;;;;;;;0.00;0.00;;;;;;;;;;1725783;28;20594;-68
2022/08/14 04:59:56;;;;;;;0.00;0.00;;;;;;;;;;1726324;28;20200;-68
2022/08/14 05:00:49;;;;;;;0.00;0.00;;;;;;;;;;1724240;28;20756;-68
2022/08/14 05:01:43;;;;;;;0.00;0.00;;;;;;;;;;1726080;28;20200;-68
2022/08/14 05:02:35;;;;;;;0.00;0.00;;;;;;;;;;1725273;28;20241;-68
2022/08/14 05:03:28;;;;;;;0.00;0.00;;;;;;;;;;1721199;28;20208;-68
2022/08/14 05:04:20;;;;;;;0.00;0.00;;;;;;;;;;1724162;28;20254;-68
2022/08/14 05:05:12;;;;;;;0.00;0.00;;;;;;;;;;1725264;28;20630;-68
2022/08/14 05:06:06;;;;;;;0.00;0.00;;;;;;;;;;1725687;28;20500;-68
2022/08/14 05:06:59;;;;;;;0.00;0.00;;;;;;;;;;1725934;28;20265;-68
2022/08/14 05:07:50;;;;;;;0.00;0.00;;;;;;;;;;1725527;28;20208;-68
2022/08/14 05:08:43;;;;;;;0.00;0.00;;;;;;;;;;1726111;28;20208;-68
2022/08/14 05:09:34;;;;;;;0.00;0.00;;;;;;;;;;1725539;28;20227;-68
2022/08/14 05:10:26;;;;;;;0.00;0.00;;;;;;;;;;1725216;28;20231;-69
2022/08/14 05:11:18;;;;;;;0.00;0.00;;;;;;;;;;1724503;28;20633;-69
2022/08/14 05:12:11;;;;;;;0.00;0.00;;;;;;;;;;1726118;28;20224;-69
2022/08/14 05:13:04;;;;;;;0.00;0.00;;;;;;;;;;1720023;28;20319;-69
2022/08/14 05:13:56;;;;;;;0.00;0.00;;;;;;;;;;1719693;28;20201;-69
2022/08/14 05:14:49;;;;;;;0.00;0.00;;;;;;;;;;1725219;28;20339;-69
2022/08/14 05:15:45;;;;;;;0.00;0.00;;;;;;;;;;1724481;28;20310;-69
2022/08/14 05:16:36;;;;;;;0.00;0.00;;;;;;;;;;1725959;28;20266;-69
2022/08/14 05:17:28;;;;;;;0.00;0.00;;;;;;;;;;1725297;28;20232;-69
2022/08/14 05:18:21;;;;;;;0.00;0.00;;;;;;;;;;1725777;28;20200;-69
2022/08/14 05:19:14;;;;;;;0.00;0.00;;;;;;;;;;1725046;28;20204;-69
2022/08/14 05:20:08;;;;;;;0.00;0.00;;;;;;;;;;1726514;28;20205;-69
2022/08/14 05:21:01;;;;;;;0.00;0.00;;;;;;;;;;1721911;28;20259;-69
2022/08/14 05:21:59;;;;;;;0.00;0.00;;;;;;;;;;1723137;28;20296;-69
2022/08/14 05:22:51;;;;;;;0.00;0.00;;;;;;;;;;1725541;28;20207;-69
2022/08/14 05:23:42;;;;;;;0.00;0.00;;;;;;;;;;1725938;28;20487;-69
2022/08/14 05:24:34;;;;;;;0.00;0.00;;;;;;;;;;1725406;28;20527;-69
2022/08/14 05:25:25;;;;;;;0.00;0.00;;;;;;;;;;1725240;28;20681;-69
2022/08/14 05:26:20;;;;;;;0.00;0.00;;;;;;;;;;1724689;28;20203;-69
2022/08/14 05:27:11;;;;;;;0.00;0.00;;;;;;;;;;1726053;28;20245;-69